< Cyclone 200909 2009 Season Cyclone 200916 >
Cyclone 200910 (Freddy)
General InformationDetailed Track InformationTrack Information on Google MapsList of All Images || ResourceGoogle EarthGE AnimationAtom FeedGeoJSON
Detalied Best Track Wind (Time Zone = UTC)
Year Month Day Hour Lat. Long. Wind (kt) Gust (kt) Direc. of Major Storm Axis Radius of Major Storm Axis (nm) Radius of Minor Storm Axis (nm) Direc. of Major Gale Axis Radius of Major Gale Axis (nm) Radius of Minor Gale Axis (nm) Image
2009 2 3 06 -15.4 125.5 0 -1 symmetric - - symmetric - - Image
2009 2 3 12 -15.4 122.5 0 -1 symmetric - - symmetric - - Image
2009 2 3 18 -15.2 121.6 0 -1 symmetric - - symmetric - - Image
2009 2 4 00 -15.1 120.6 0 -1 symmetric - - symmetric - - Image
2009 2 4 06 -14.9 120.3 0 -1 symmetric - - symmetric - - Image
2009 2 4 12 -14.9 119.0 0 -1 symmetric - - symmetric - - Image
2009 2 4 18 -15.5 118.8 0 -1 symmetric - - symmetric - - Image
2009 2 5 00 -15.9 118.4 0 -1 symmetric - - symmetric - - Image
2009 2 5 06 -16.1 117.8 20 45 symmetric - - symmetric - - Image
2009 2 5 12 -16.1 116.7 20 45 symmetric - - symmetric - - Image
2009 2 5 18 -16.2 115.2 25 45 symmetric - - symmetric - - Image
2009 2 6 00 -16.1 114.3 25 45 symmetric - - symmetric - - Image
2009 2 6 06 -15.9 114.1 25 45 symmetric - - symmetric - - Image
2009 2 6 12 -15.9 113.8 25 45 symmetric - - symmetric - - Image
2009 2 6 18 -15.9 113.5 30 45 symmetric - - symmetric - - Image
2009 2 7 00 -15.9 113.3 30 45 symmetric - - symmetric - - Image
2009 2 7 06 -16.3 112.8 30 45 symmetric - - symmetric - - Image
2009 2 7 12 -16.2 111.8 30 45 symmetric - - symmetric - - Image
2009 2 7 18 -16.0 111.1 35 50 symmetric - - symmetric - - Image
2009 2 8 00 -16.0 110.3 45 65 symmetric - - symmetric - - Image
2009 2 8 06 -16.3 109.5 45 65 symmetric - - symmetric - - Image
2009 2 8 12 -16.5 108.6 45 65 symmetric - - symmetric - - Image
2009 2 8 18 -16.9 107.7 45 65 symmetric - - symmetric - - Image
2009 2 9 00 -17.6 106.9 45 65 symmetric - - symmetric - - Image
2009 2 9 06 -18.2 105.7 40 55 symmetric - - symmetric - - Image
2009 2 9 12 -18.8 104.5 35 50 symmetric - - symmetric - - Image
2009 2 9 18 -19.2 103.3 30 45 symmetric - - symmetric - - Image
2009 2 10 00 -19.7 102.2 30 45 symmetric - - symmetric - - Image
2009 2 10 06 -20.5 100.5 30 45 symmetric - - symmetric - - Image
2009 2 10 12 -20.8 100.0 25 45 symmetric - - symmetric - - Image
2009 2 10 18 -21.1 99.0 25 45 symmetric - - symmetric - - Image
2009 2 11 00 -21.4 98.0 25 45 symmetric - - symmetric - - Image
2009 2 11 06 -21.6 97.4 25 45 symmetric - - symmetric - - Image
2009 2 11 12 -21.4 96.9 25 45 symmetric - - symmetric - - Image
2009 2 11 18 -21.0 96.3 25 45 symmetric - - symmetric - - Image
2009 2 12 00 -20.7 95.8 20 45 symmetric - - symmetric - - Image
2009 2 12 06 -20.3 94.6 20 45 symmetric - - symmetric - - Image
2009 2 12 12 -19.9 93.1 20 45 symmetric - - symmetric - - Image
2009 2 12 18 -19.6 91.7 20 45 symmetric - - symmetric - - Image
2009 2 13 00 -19.2 90.2 20 45 symmetric - - symmetric - - Image
2009 2 13 06 -18.9 88.9 20 45 symmetric - - symmetric - - Image
< Cyclone 200909 2009 Season Cyclone 200916 >

Help